createdAt,value
2019-02-09T00:00:00.049Z,81.10
2019-02-09T00:02:27.351Z,81.20
2019-02-09T00:04:54.680Z,81.10
2019-02-09T00:07:22.010Z,82.00
2019-02-09T00:09:49.387Z,81.30
2019-02-09T00:12:16.724Z,81.90
2019-02-09T00:14:43.942Z,82.50
2019-02-09T00:17:11.158Z,83.70
2019-02-09T00:19:38.368Z,85.30
2019-02-09T00:22:05.720Z,86.80
2019-02-09T00:24:33.042Z,88.00
2019-02-09T00:27:00.371Z,89.00
2019-02-09T00:29:27.730Z,90.00
2019-02-09T00:31:54.937Z,90.60
2019-02-09T00:34:22.309Z,91.00
2019-02-09T00:36:49.628Z,91.30
2019-02-09T00:39:16.965Z,91.50
2019-02-09T00:41:44.297Z,91.80
2019-02-09T00:44:11.669Z,91.80
2019-02-09T00:46:39.046Z,92.10
2019-02-09T00:49:06.378Z,92.20
2019-02-09T00:51:33.762Z,91.90
2019-02-09T00:54:00.981Z,91.70
2019-02-09T00:56:28.338Z,91.90
2019-02-09T00:58:55.780Z,92.10
2019-02-09T01:01:23.133Z,92.10
2019-02-09T01:03:50.356Z,92.30
2019-02-09T01:06:17.708Z,92.70
2019-02-09T01:08:44.939Z,92.70
2019-02-09T01:11:12.289Z,92.90
2019-02-09T01:13:39.638Z,93.60
2019-02-09T01:16:06.968Z,93.80
2019-02-09T01:18:34.212Z,93.90
2019-02-09T01:21:03.294Z,93.80
2019-02-09T01:23:30.615Z,94.00
2019-02-09T01:25:57.930Z,93.30
2019-02-09T01:28:25.389Z,93.00
2019-02-09T01:30:52.714Z,92.90
2019-02-09T01:33:20.038Z,92.80
2019-02-09T01:35:47.372Z,92.80
2019-02-09T01:38:14.702Z,92.60
2019-02-09T01:40:41.935Z,92.40
2019-02-09T01:43:09.198Z,92.30
2019-02-09T01:45:36.540Z,92.30
2019-02-09T01:48:04.171Z,92.20
2019-02-09T01:50:31.863Z,92.10
2019-02-09T01:52:59.765Z,92.20
2019-02-09T01:55:28.136Z,92.50
2019-02-09T01:57:55.512Z,92.70
2019-02-09T02:00:24.819Z,92.70
2019-02-09T02:02:52.165Z,92.90
2019-02-09T02:05:20.539Z,92.90
2019-02-09T02:07:47.869Z,92.90
2019-02-09T02:10:26.734Z,92.80
2019-02-09T02:12:54.095Z,92.80
2019-02-09T02:15:21.458Z,92.60
2019-02-09T02:17:49.361Z,92.70
2019-02-09T02:20:18.333Z,92.70
2019-02-09T02:22:45.661Z,92.80
2019-02-09T02:25:13.091Z,92.70
2019-02-09T02:27:40.413Z,92.70
2019-02-09T02:30:21.714Z,92.80
2019-02-09T02:32:39.776Z,92.80
2019-02-09T02:35:07.208Z,92.70
2019-02-09T02:37:34.540Z,92.80
2019-02-09T02:40:01.780Z,92.90
2019-02-09T02:42:29.114Z,93.00
2019-02-09T02:44:56.452Z,93.30
2019-02-09T02:47:23.813Z,93.80
2019-02-09T02:49:51.094Z,94.40
2019-02-09T02:52:18.429Z,94.80
2019-02-09T02:54:45.770Z,94.80
2019-02-09T02:57:13.082Z,95.00
2019-02-09T02:59:40.409Z,95.10
2019-02-09T03:02:07.873Z,95.10
2019-02-09T03:04:35.196Z,95.20
2019-02-09T03:07:02.721Z,95.20
2019-02-09T03:09:30.013Z,95.30
2019-02-09T03:11:57.460Z,95.30
2019-02-09T03:14:24.853Z,95.20
2019-02-09T03:16:52.210Z,95.00
2019-02-09T03:19:19.536Z,94.90
2019-02-09T03:21:46.765Z,94.60
2019-02-09T03:24:14.133Z,94.30
2019-02-09T03:26:41.485Z,94.10
2019-02-09T03:29:08.712Z,93.90
2019-02-09T03:31:36.075Z,93.80
2019-02-09T03:34:03.307Z,93.30
2019-02-09T03:36:30.651Z,92.60
2019-02-09T03:38:58.039Z,92.10
2019-02-09T03:41:25.273Z,91.80
2019-02-09T03:43:52.601Z,91.60
2019-02-09T03:46:19.917Z,91.30
2019-02-09T03:48:47.225Z,91.10
2019-02-09T03:51:14.552Z,90.90
2019-02-09T03:53:41.889Z,90.90
2019-02-09T03:56:09.229Z,90.80
2019-02-09T03:58:36.559Z,90.70
2019-02-09T04:01:04.155Z,90.60
2019-02-09T04:03:31.469Z,90.50
2019-02-09T04:05:58.806Z,90.40
2019-02-09T04:08:26.167Z,90.40
2019-02-09T04:10:53.407Z,90.40
2019-02-09T04:13:20.717Z,90.40
2019-02-09T04:15:48.062Z,90.40
2019-02-09T04:18:15.314Z,90.20
2019-02-09T04:20:42.631Z,90.20
2019-02-09T04:23:09.998Z,90.00
2019-02-09T04:25:37.318Z,89.60
2019-02-09T04:28:04.637Z,89.10
2019-02-09T04:30:32.006Z,89.00
2019-02-09T04:32:59.315Z,88.80
2019-02-09T04:35:29.666Z,88.10
2019-02-09T04:37:57.078Z,87.90
2019-02-09T04:40:26.274Z,87.30
2019-02-09T04:42:53.606Z,86.90
2019-02-09T04:45:21.666Z,86.50
2019-02-09T04:47:48.892Z,86.30
2019-02-09T04:50:16.232Z,85.90
2019-02-09T04:52:43.717Z,85.80
2019-02-09T04:55:13.580Z,85.80
2019-02-09T04:57:40.883Z,85.80
2019-02-09T05:00:10.153Z,86.20
2019-02-09T05:02:37.485Z,86.10
2019-02-09T05:05:05.053Z,86.30
2019-02-09T05:07:32.321Z,86.70
2019-02-09T05:09:59.553Z,87.00
2019-02-09T05:12:26.859Z,87.00
2019-02-09T05:14:54.132Z,87.20
2019-02-09T05:17:21.472Z,87.20
2019-02-09T05:19:48.707Z,86.90
2019-02-09T05:22:15.940Z,86.80
2019-02-09T05:24:43.180Z,87.20
2019-02-09T05:27:10.511Z,87.10
2019-02-09T05:29:37.871Z,87.20
2019-02-09T05:32:05.082Z,87.40
2019-02-09T05:34:32.413Z,87.50
2019-02-09T05:36:59.755Z,87.20
2019-02-09T05:39:27.092Z,87.00
2019-02-09T05:41:54.397Z,87.00
2019-02-09T05:44:21.707Z,87.20
2019-02-09T05:46:48.931Z,87.30
2019-02-09T05:49:16.165Z,87.40
2019-02-09T05:51:43.578Z,87.50
2019-02-09T05:54:11.027Z,87.50
2019-02-09T05:56:38.334Z,87.50
2019-02-09T05:59:07.433Z,87.50
2019-02-09T06:01:34.901Z,87.40
2019-02-09T06:04:02.419Z,87.00
2019-02-09T06:06:29.759Z,86.40
2019-02-09T06:08:57.071Z,86.00
2019-02-09T06:11:24.441Z,86.10
2019-02-09T06:13:51.685Z,85.90
2019-02-09T06:16:18.996Z,85.80
2019-02-09T06:18:46.355Z,85.60
2019-02-09T06:21:13.686Z,85.10
2019-02-09T06:23:40.965Z,85.10
2019-02-09T06:26:08.206Z,85.00
2019-02-09T06:28:35.537Z,84.70
2019-02-09T06:31:02.731Z,84.30
2019-02-09T06:33:30.070Z,83.40
2019-02-09T06:35:57.385Z,83.00
2019-02-09T06:38:24.700Z,82.90
2019-02-09T06:40:51.946Z,82.80
2019-02-09T06:43:19.155Z,82.10
2019-02-09T06:45:46.371Z,81.10
2019-02-09T06:48:16.491Z,80.50
2019-02-09T06:50:43.872Z,80.40
2019-02-09T06:53:11.170Z,80.40
2019-02-09T06:55:38.510Z,79.90
2019-02-09T06:58:05.850Z,79.60
2019-02-09T07:00:33.186Z,79.30
2019-02-09T07:03:00.563Z,79.10
2019-02-09T07:05:29.129Z,79.10
2019-02-09T07:07:56.449Z,78.90
2019-02-09T07:10:23.776Z,78.90
2019-02-09T07:12:50.981Z,78.80
2019-02-09T07:15:21.875Z,78.90
2019-02-09T07:17:49.106Z,78.90
2019-02-09T07:20:16.496Z,77.90
2019-02-09T07:22:43.800Z,77.70
2019-02-09T07:25:11.474Z,77.10
2019-02-09T07:27:38.806Z,76.80
2019-02-09T07:30:08.565Z,76.70
2019-02-09T07:32:35.899Z,76.30
2019-02-09T07:35:04.152Z,75.80
2019-02-09T07:37:31.443Z,75.60
2019-02-09T07:39:58.817Z,75.00
2019-02-09T07:42:26.035Z,74.70
2019-02-09T07:44:53.329Z,74.60
2019-02-09T07:47:20.586Z,74.30
2019-02-09T07:49:47.919Z,74.50
2019-02-09T07:52:15.233Z,74.40
2019-02-09T07:54:42.464Z,74.40
2019-02-09T07:57:09.805Z,74.30
2019-02-09T07:59:37.151Z,74.50
2019-02-09T08:02:04.934Z,73.90
2019-02-09T08:04:32.339Z,74.30
2019-02-09T08:06:59.719Z,74.50
2019-02-09T08:09:27.126Z,74.20
2019-02-09T08:11:54.433Z,74.10
2019-02-09T08:14:21.758Z,73.60
2019-02-09T08:16:49.090Z,73.70
2019-02-09T08:19:16.405Z,73.30
2019-02-09T08:21:43.623Z,73.00
2019-02-09T08:24:10.886Z,72.60
2019-02-09T08:26:38.297Z,71.60
2019-02-09T08:29:05.599Z,70.90
2019-02-09T08:31:32.841Z,70.80
2019-02-09T08:34:00.081Z,71.10
2019-02-09T08:36:27.290Z,70.90
2019-02-09T08:38:54.666Z,70.50
2019-02-09T08:41:21.904Z,70.20
2019-02-09T08:43:49.235Z,70.20
2019-02-09T08:46:16.473Z,69.40
2019-02-09T08:48:43.806Z,68.70
2019-02-09T08:51:12.705Z,68.20
2019-02-09T08:53:39.934Z,68.00
2019-02-09T08:56:07.256Z,67.80
2019-02-09T08:58:34.587Z,67.40
2019-02-09T09:01:01.959Z,67.30
2019-02-09T09:03:29.272Z,65.90
2019-02-09T09:05:56.606Z,65.40
2019-02-09T09:08:23.946Z,64.90
2019-02-09T09:10:51.258Z,64.20
2019-02-09T09:13:18.584Z,63.70
2019-02-09T09:15:48.546Z,63.50
2019-02-09T09:18:15.851Z,62.60
2019-02-09T09:20:45.816Z,62.80
2019-02-09T09:23:13.040Z,61.70
2019-02-09T09:25:40.371Z,61.90
2019-02-09T09:28:07.718Z,61.70
2019-02-09T09:30:34.929Z,61.30
2019-02-09T09:33:02.225Z,60.60
2019-02-09T09:35:29.576Z,60.20
2019-02-09T09:37:56.826Z,59.80
2019-02-09T09:40:26.556Z,60.70
2019-02-09T09:42:53.856Z,61.80
2019-02-09T09:45:23.373Z,62.30
2019-02-09T09:47:50.980Z,62.50
2019-02-09T09:50:19.033Z,63.00
2019-02-09T09:52:46.381Z,63.50
2019-02-09T09:55:13.709Z,63.40
2019-02-09T09:57:41.013Z,62.30
2019-02-09T10:00:09.783Z,60.30
2019-02-09T10:02:37.097Z,58.00
2019-02-09T10:05:05.856Z,56.30
2019-02-09T10:07:33.216Z,54.50
2019-02-09T10:10:00.565Z,53.10
2019-02-09T10:12:27.861Z,51.80
2019-02-09T10:14:55.097Z,51.40
2019-02-09T10:17:22.316Z,51.40
2019-02-09T10:19:49.540Z,52.80
2019-02-09T10:22:16.927Z,54.10
2019-02-09T10:24:44.255Z,55.00
2019-02-09T10:27:11.677Z,55.50
2019-02-09T10:29:39.138Z,55.90
2019-02-09T10:32:06.524Z,57.70
2019-02-09T10:34:33.833Z,58.70
2019-02-09T10:37:01.209Z,59.90
2019-02-09T10:39:28.496Z,61.20
2019-02-09T10:41:55.736Z,59.90
2019-02-09T10:44:23.087Z,58.60
2019-02-09T10:46:50.374Z,56.70
2019-02-09T10:49:17.693Z,56.40
2019-02-09T10:51:44.921Z,56.40
2019-02-09T10:54:12.229Z,55.50
2019-02-09T10:56:39.384Z,54.00
2019-02-09T10:59:06.795Z,52.40
2019-02-09T11:01:34.361Z,52.50
2019-02-09T11:04:01.741Z,52.70
2019-02-09T11:06:29.082Z,52.30
2019-02-09T11:08:57.728Z,51.70
2019-02-09T11:11:25.075Z,51.80
2019-02-09T11:13:52.517Z,51.50
2019-02-09T11:16:19.913Z,50.80
2019-02-09T11:18:47.156Z,50.40
2019-02-09T11:21:14.513Z,49.70
2019-02-09T11:23:41.744Z,49.30
2019-02-09T11:26:09.090Z,48.30
2019-02-09T11:28:36.497Z,48.80
2019-02-09T11:31:03.920Z,48.90
2019-02-09T11:33:31.809Z,48.60
2019-02-09T11:36:00.018Z,48.40
2019-02-09T11:38:27.473Z,48.40
2019-02-09T11:40:54.761Z,49.10
2019-02-09T11:43:22.125Z,49.50
2019-02-09T11:45:49.443Z,50.70
2019-02-09T11:48:16.799Z,51.40
2019-02-09T11:50:44.096Z,52.10
2019-02-09T11:53:11.395Z,52.90
2019-02-09T11:55:38.632Z,53.50
2019-02-09T11:58:06.073Z,54.20
2019-02-09T12:00:38.691Z,55.50
2019-02-09T12:03:14.594Z,56.30
2019-02-09T12:05:35.312Z,56.70
2019-02-09T12:08:03.065Z,57.20
2019-02-09T12:10:30.358Z,57.30
2019-02-09T12:12:57.598Z,57.30
2019-02-09T12:15:29.812Z,57.40
2019-02-09T12:17:57.013Z,57.50
2019-02-09T12:20:24.406Z,57.50
2019-02-09T12:22:51.778Z,57.10
2019-02-09T12:25:21.930Z,56.50
2019-02-09T12:27:49.345Z,56.10
2019-02-09T12:30:21.524Z,55.50
2019-02-09T12:32:49.067Z,56.00
2019-02-09T12:35:16.337Z,55.80
2019-02-09T12:37:43.637Z,56.10
2019-02-09T12:40:21.772Z,56.30
2019-02-09T12:42:49.433Z,55.60
2019-02-09T12:45:17.360Z,55.80
2019-02-09T12:47:44.598Z,55.90
2019-02-09T12:50:12.997Z,55.80
2019-02-09T12:52:40.389Z,56.00
2019-02-09T12:55:07.792Z,56.20
2019-02-09T12:57:35.113Z,56.40
2019-02-09T13:00:03.230Z,56.20
2019-02-09T13:02:31.047Z,55.80
2019-02-09T13:04:58.400Z,55.20
2019-02-09T13:07:25.714Z,55.10
2019-02-09T13:09:53.161Z,54.40
2019-02-09T13:12:20.505Z,53.40
2019-02-09T13:14:47.846Z,53.50
2019-02-09T13:17:15.172Z,53.40
2019-02-09T13:19:42.519Z,53.50
2019-02-09T13:22:09.824Z,53.00
2019-02-09T13:24:37.150Z,52.90
2019-02-09T13:27:04.468Z,52.30
2019-02-09T13:29:31.672Z,52.50
2019-02-09T13:31:59.016Z,52.60
2019-02-09T13:34:26.368Z,52.80
2019-02-09T13:36:53.618Z,53.20
2019-02-09T13:39:20.851Z,53.30
2019-02-09T13:41:48.065Z,53.80
2019-02-09T13:44:15.373Z,54.50
2019-02-09T13:46:42.686Z,55.10
2019-02-09T13:49:10.065Z,55.90
2019-02-09T13:51:37.283Z,56.80
2019-02-09T13:54:04.532Z,57.70
2019-02-09T13:56:31.732Z,58.00
2019-02-09T13:58:59.108Z,58.50
2019-02-09T14:01:26.284Z,58.90
2019-02-09T14:03:53.501Z,59.50
2019-02-09T14:06:20.716Z,60.00
2019-02-09T14:08:48.084Z,60.40
2019-02-09T14:11:15.458Z,59.90
2019-02-09T14:13:42.766Z,59.90
2019-02-09T14:16:10.864Z,59.70
2019-02-09T14:18:38.316Z,59.50
2019-02-09T14:21:05.657Z,59.50
2019-02-09T14:23:32.846Z,59.30
2019-02-09T14:26:00.570Z,58.50
2019-02-09T14:28:28.834Z,58.60
2019-02-09T14:30:56.032Z,58.90
2019-02-09T14:33:23.236Z,59.30
2019-02-09T14:35:50.466Z,59.30
2019-02-09T14:38:17.792Z,59.20
2019-02-09T14:40:45.242Z,59.20
2019-02-09T14:43:12.438Z,58.90
2019-02-09T14:45:41.597Z,59.20
2019-02-09T14:48:08.797Z,59.30
2019-02-09T14:50:36.044Z,59.30
2019-02-09T14:53:03.970Z,59.60
2019-02-09T14:55:32.624Z,59.90
2019-02-09T14:58:00.194Z,60.10
2019-02-09T15:00:41.606Z,59.90
2019-02-09T15:03:09.375Z,60.40
2019-02-09T15:05:36.731Z,60.50
2019-02-09T15:08:05.020Z,61.00
2019-02-09T15:10:32.349Z,61.00
2019-02-09T15:12:59.677Z,61.30
2019-02-09T15:15:29.512Z,61.30
2019-02-09T15:17:56.739Z,61.60
2019-02-09T15:20:26.986Z,61.80
2019-02-09T15:22:54.294Z,61.90
2019-02-09T15:25:21.600Z,61.80
2019-02-09T15:27:48.841Z,61.80
2019-02-09T15:30:19.045Z,62.00
2019-02-09T15:32:46.408Z,61.70
2019-02-09T15:35:13.758Z,61.10
2019-02-09T15:37:41.092Z,61.20
2019-02-09T15:40:10.986Z,61.10
2019-02-09T15:42:38.275Z,60.70
2019-02-09T15:45:06.493Z,60.40
2019-02-09T15:47:33.861Z,60.40
2019-02-09T15:50:01.176Z,60.50
2019-02-09T15:52:28.446Z,60.50
2019-02-09T15:54:55.668Z,60.50
2019-02-09T15:57:23.017Z,60.40
2019-02-09T15:59:50.342Z,60.40
2019-02-09T16:02:17.576Z,60.30
2019-02-09T16:04:44.780Z,60.10
2019-02-09T16:07:12.002Z,60.10
2019-02-09T16:09:39.265Z,60.00
2019-02-09T16:12:06.628Z,59.50
2019-02-09T16:14:33.930Z,59.50
2019-02-09T16:17:01.328Z,59.40
2019-02-09T16:19:28.740Z,59.10
2019-02-09T16:21:56.054Z,58.90
2019-02-09T16:24:23.465Z,58.60
2019-02-09T16:26:50.770Z,58.50
2019-02-09T16:29:18.096Z,58.50
2019-02-09T16:31:45.310Z,58.50
2019-02-09T16:34:12.627Z,58.70
2019-02-09T16:36:39.941Z,58.80
2019-02-09T16:39:07.567Z,58.90
2019-02-09T16:41:34.898Z,59.00
2019-02-09T16:44:02.130Z,59.20
2019-02-09T16:46:29.452Z,59.30
2019-02-09T16:48:56.802Z,59.90
2019-02-09T16:51:24.160Z,59.40
2019-02-09T16:53:51.489Z,59.40
2019-02-09T16:56:18.740Z,59.40
2019-02-09T16:58:46.160Z,59.60
2019-02-09T17:01:13.490Z,59.70
2019-02-09T17:03:40.806Z,59.70
2019-02-09T17:06:08.162Z,59.80
2019-02-09T17:08:35.392Z,60.00
2019-02-09T17:11:02.944Z,60.10
2019-02-09T17:13:30.288Z,60.10
2019-02-09T17:15:57.501Z,60.30
2019-02-09T17:18:24.721Z,60.50
2019-02-09T17:20:52.969Z,60.70
2019-02-09T17:23:20.354Z,61.00
2019-02-09T17:25:47.698Z,61.20
2019-02-09T17:28:15.108Z,61.60
2019-02-09T17:30:42.438Z,62.10
2019-02-09T17:33:09.804Z,62.40
2019-02-09T17:35:37.119Z,62.80
2019-02-09T17:38:06.588Z,63.40
2019-02-09T17:40:39.460Z,64.00
2019-02-09T17:43:10.005Z,64.30
2019-02-09T17:45:41.188Z,64.80
2019-02-09T17:48:08.408Z,65.30
2019-02-09T17:50:37.522Z,65.80
2019-02-09T17:53:04.878Z,66.40
2019-02-09T17:55:32.173Z,67.50
2019-02-09T17:57:59.510Z,68.40
2019-02-09T18:00:36.179Z,69.60
2019-02-09T18:03:03.524Z,69.80
2019-02-09T18:05:30.876Z,70.20
2019-02-09T18:07:58.226Z,70.50
2019-02-09T18:10:25.570Z,70.80
2019-02-09T18:12:52.919Z,71.00
2019-02-09T18:15:20.392Z,70.90
2019-02-09T18:17:50.781Z,70.70
2019-02-09T18:20:18.282Z,70.50
2019-02-09T18:22:45.752Z,69.90
2019-02-09T18:25:14.892Z,69.60
2019-02-09T18:27:42.199Z,69.60
2019-02-09T18:30:12.977Z,69.60
2019-02-09T18:32:40.309Z,69.70
2019-02-09T18:35:07.958Z,69.80
2019-02-09T18:37:35.324Z,69.90
2019-02-09T18:40:04.725Z,70.00
2019-02-09T18:42:32.072Z,70.00
2019-02-09T18:44:59.525Z,70.50
2019-02-09T18:47:26.894Z,71.00
2019-02-09T18:49:54.204Z,71.50
2019-02-09T18:52:21.520Z,71.90
2019-02-09T18:54:49.172Z,72.30
2019-02-09T18:57:16.538Z,72.60
2019-02-09T18:59:43.825Z,72.90
2019-02-09T19:02:11.291Z,73.30
2019-02-09T19:04:38.677Z,73.80
2019-02-09T19:07:06.132Z,74.20
2019-02-09T19:09:33.452Z,74.70
2019-02-09T19:12:00.832Z,74.90
2019-02-09T19:14:28.632Z,75.50
2019-02-09T19:16:56.027Z,75.90
2019-02-09T19:19:23.377Z,76.40
2019-02-09T19:21:50.736Z,76.70
2019-02-09T19:24:18.124Z,76.90
2019-02-09T19:26:45.510Z,77.20
2019-02-09T19:29:12.844Z,77.40
2019-02-09T19:31:40.234Z,77.50
2019-02-09T19:34:07.604Z,77.90
2019-02-09T19:36:34.968Z,78.00
2019-02-09T19:39:03.924Z,78.50
2019-02-09T19:41:31.306Z,78.70
2019-02-09T19:43:58.631Z,78.70
2019-02-09T19:46:25.955Z,78.90
2019-02-09T19:48:53.332Z,79.30
2019-02-09T19:51:20.573Z,79.50
2019-02-09T19:53:47.935Z,79.70
2019-02-09T19:56:15.272Z,79.90
2019-02-09T19:58:42.578Z,80.20
2019-02-09T20:01:09.892Z,80.30
2019-02-09T20:03:37.217Z,80.50
2019-02-09T20:06:04.561Z,80.70
2019-02-09T20:08:31.804Z,80.90
2019-02-09T20:10:59.228Z,81.10
2019-02-09T20:13:26.545Z,81.20
2019-02-09T20:15:53.874Z,81.20
2019-02-09T20:18:21.203Z,81.30
2019-02-09T20:20:48.537Z,81.40
2019-02-09T20:23:15.745Z,81.40
2019-02-09T20:25:43.105Z,81.50
2019-02-09T20:28:10.446Z,81.60
2019-02-09T20:30:37.945Z,81.70
2019-02-09T20:33:05.485Z,81.80
2019-02-09T20:35:32.824Z,82.00
2019-02-09T20:38:00.244Z,82.00
2019-02-09T20:40:29.845Z,82.00
2019-02-09T20:43:01.930Z,81.90
2019-02-09T20:45:26.420Z,82.00
2019-02-09T20:47:53.774Z,82.00
2019-02-09T20:50:21.269Z,81.80
2019-02-09T20:52:48.634Z,81.90
2019-02-09T20:55:15.997Z,82.80
2019-02-09T20:57:43.330Z,82.10
2019-02-09T21:00:18.256Z,82.20
2019-02-09T21:02:42.937Z,82.20
2019-02-09T21:05:10.513Z,82.20
2019-02-09T21:07:37.870Z,82.20
2019-02-09T21:10:07.998Z,82.20
2019-02-09T21:12:35.353Z,82.20
2019-02-09T21:15:02.806Z,82.30
2019-02-09T21:17:30.135Z,82.30
2019-02-09T21:19:57.469Z,82.20
2019-02-09T21:22:24.919Z,82.10
2019-02-09T21:24:52.576Z,82.10
2019-02-09T21:27:20.069Z,82.20
2019-02-09T21:29:47.690Z,82.10
2019-02-09T21:32:15.201Z,82.20
2019-02-09T21:34:42.598Z,82.20
2019-02-09T21:37:09.964Z,82.20
2019-02-09T21:39:37.317Z,82.40
2019-02-09T21:42:04.980Z,82.50
2019-02-09T21:44:32.346Z,83.40
2019-02-09T21:46:59.680Z,82.70
2019-02-09T21:49:27.049Z,82.70
2019-02-09T21:51:54.312Z,82.90
2019-02-09T21:54:21.653Z,83.00
2019-02-09T21:56:48.999Z,83.00
2019-02-09T21:59:16.341Z,83.10
2019-02-09T22:01:43.686Z,83.30
2019-02-09T22:04:11.081Z,83.40
2019-02-09T22:06:38.406Z,83.50
2019-02-09T22:09:06.852Z,83.70
2019-02-09T22:11:34.283Z,83.90
2019-02-09T22:14:01.762Z,84.10
2019-02-09T22:16:29.121Z,84.10
2019-02-09T22:18:58.551Z,84.30
2019-02-09T22:21:25.818Z,84.40
2019-02-09T22:23:53.245Z,84.60
2019-02-09T22:26:21.998Z,84.60
2019-02-09T22:28:49.553Z,84.70
2019-02-09T22:31:21.874Z,84.70
2019-02-09T22:33:48.701Z,84.90
2019-02-09T22:36:16.813Z,84.90
2019-02-09T22:38:44.075Z,85.00
2019-02-09T22:41:11.407Z,85.00
2019-02-09T22:43:38.786Z,85.10
2019-02-09T22:46:06.128Z,85.10
2019-02-09T22:48:33.331Z,85.30
2019-02-09T22:51:00.600Z,85.10
2019-02-09T22:53:27.972Z,85.30
2019-02-09T22:55:55.225Z,85.30
2019-02-09T22:58:22.614Z,85.30
2019-02-09T23:00:59.471Z,85.40
2019-02-09T23:03:33.143Z,85.30
2019-02-09T23:06:52.522Z,85.40
2019-02-09T23:09:19.044Z,85.40
2019-02-09T23:11:46.393Z,85.40
2019-02-09T23:14:13.749Z,85.40
2019-02-09T23:16:41.028Z,85.40
2019-02-09T23:19:08.402Z,85.30
2019-02-09T23:21:36.046Z,85.20
2019-02-09T23:24:03.503Z,85.10
2019-02-09T23:26:30.784Z,85.00
2019-02-09T23:28:58.441Z,84.90
2019-02-09T23:31:25.792Z,84.60
2019-02-09T23:33:53.145Z,84.40
2019-02-09T23:36:20.505Z,84.40
2019-02-09T23:38:47.843Z,84.20
2019-02-09T23:41:15.297Z,84.10
2019-02-09T23:43:42.719Z,83.80
2019-02-09T23:46:10.089Z,83.70
2019-02-09T23:48:37.601Z,83.60
2019-02-09T23:51:05.021Z,83.50
2019-02-09T23:53:32.369Z,83.10
2019-02-09T23:55:59.602Z,83.10
2019-02-09T23:58:26.977Z,82.90
